Time;durP1;ratioP1;P1;durP2;ratioP2;P2;SDS_P1;SDS_P2;PMS_P1;PMS_P2;Temp;Humidity;BMP_temperature;BMP_pressure;BME280_temperature;BME280_humidity;BME280_pressure;Samples;Min_cycle;Max_cycle;Signal;HPM_P1;HPM_P2
2022/12/22 03:27:13;;;;;;;53.55;21.60;;;;;;;8.91;60.99;98023.56;4397355;32;20102;-86
2022/12/22 03:29:40;;;;;;;49.45;19.77;;;;;;;8.58;62.21;98029.91;4397655;32;20164;-85
2022/12/22 03:32:07;;;;;;;50.60;19.73;;;;;;;8.59;62.24;98011.03;4397508;32;20093;-86
2022/12/22 03:34:34;;;;;;;49.70;20.15;;;;;;;8.21;63.80;98008.03;4397442;32;20078;-86
2022/12/22 03:37:01;;;;;;;;;;;;;;;7.75;65.22;98001.81;4401009;32;20101;-86
2022/12/22 03:39:27;;;;;;;50.58;17.85;;;;;;;7.41;67.06;98008.91;4402609;32;19946;-86
2022/12/22 03:47:25;;;;;;;48.97;18.02;;;;;;;7.23;68.15;98017.97;4405095;32;20100;-86
2022/12/22 03:49:54;;;;;;;;;;;;;;;8.11;65.45;98034.94;4406125;32;20074;-86
2022/12/22 03:52:21;;;;;;;49.50;17.40;;;;;;;8.01;65.43;98034.37;4406685;32;19957;-86
2022/12/22 03:54:48;;;;;;;53.87;19.87;;;;;;;8.32;63.90;98041.91;4406013;32;20105;-86
2022/12/22 03:57:15;;;;;;;46.50;17.80;;;;;;;8.69;61.53;98033.78;4406414;32;20099;-86
2022/12/22 03:59:51;;;;;;;;;;;;;;;9.55;58.50;98033.19;4406320;32;20106;-86
2022/12/22 04:02:18;;;;;;;43.72;15.90;;;;;;;8.77;61.33;98020.66;4405269;32;19985;-86
2022/12/22 04:04:45;;;;;;;39.67;16.67;;;;;;;9.30;59.01;98024.72;4404871;32;20087;-86
2022/12/22 04:07:12;;;;;;;;;;;;;;;8.92;59.71;98019.25;4404942;32;20074;-86
2022/12/22 04:12:53;;;;;;;36.35;14.60;;;;;;;9.14;59.10;98027.03;4402999;32;19994;-86
2022/12/22 04:15:11;;;;;;;41.08;15.52;;;;;;;9.76;57.29;98003.16;4401075;32;20144;-86
2022/12/22 04:17:38;;;;;;;;;;;;;;;7.96;63.26;97992.56;4401517;32;20113;-86
2022/12/22 04:20:05;;;;;;;50.85;17.85;;;;;;;7.32;66.82;97989.47;4400737;32;19950;-86
2022/12/22 04:22:32;;;;;;;44.00;16.27;;;;;;;6.53;70.87;98004.63;4400992;32;20066;-86
2022/12/22 04:24:59;;;;;;;;;;;;;;;8.01;65.37;98013.00;4401682;32;20198;-86
2022/12/22 04:27:26;;;;;;;39.30;16.12;;;;;;;8.22;64.27;98019.97;4401939;32;19954;-86
2022/12/22 04:29:52;;;;;;;;;;;;;;;8.51;63.44;98010.47;4402567;32;20129;-86
2022/12/22 04:32:19;;;;;;;38.95;15.57;;;;;;;8.68;62.36;98010.69;4403780;32;19970;-86
2022/12/22 04:34:46;;;;;;;47.28;16.92;;;;;;;9.11;60.62;98011.72;4403852;32;20062;-86
2022/12/22 04:37:13;;;;;;;;;;;;;;;9.14;60.50;98004.69;4404841;32;20078;-86
2022/12/22 04:39:50;;;;;;;39.25;15.80;;;;;;;9.30;59.25;98009.28;4403549;32;19955;-86
2022/12/22 04:42:17;;;;;;;50.10;17.80;;;;;;;9.19;59.79;98007.97;4403307;32;20093;-86
2022/12/22 04:44:43;;;;;;;;;;;;;;;9.29;59.65;97998.16;4402555;32;20082;-86
2022/12/22 04:47:10;;;;;;;40.35;16.10;;;;;;;9.49;59.01;97995.66;4402404;32;19992;-86
2022/12/22 04:49:38;;;;;;;40.83;16.87;;;;;;;9.60;58.57;97994.38;4389659;32;20094;-86
2022/12/22 04:52:05;;;;;;;40.47;14.90;;;;;;;9.69;58.41;98000.00;4403464;32;20079;-86
2022/12/22 04:54:32;;;;;;;41.25;16.02;;;;;;;9.73;58.03;97995.56;4402444;32;20066;-86
2022/12/22 04:56:59;;;;;;;40.30;16.60;;;;;;;9.70;57.94;97995.69;4402103;32;20128;-86
2022/12/22 04:59:26;;;;;;;39.35;15.32;;;;;;;9.79;56.91;97997.91;4401262;32;20085;-85
2022/12/22 05:01:53;;;;;;;36.92;15.80;;;;;;;9.70;57.58;98003.44;4401307;32;20090;-86
2022/12/22 05:04:20;;;;;;;38.03;15.73;;;;;;;9.60;57.28;97996.97;4400867;32;20055;-87
2022/12/22 05:06:49;;;;;;;40.05;16.15;;;;;;;9.68;57.44;98003.50;4401279;32;20527;-86
2022/12/22 05:09:16;;;;;;;;;;;;;;;9.98;56.97;97997.97;4401222;32;20801;-86
2022/12/22 05:11:43;;;;;;;34.25;14.40;;;;;;;10.21;55.95;97991.84;4386983;32;19950;-86
2022/12/22 05:14:10;;;;;;;36.00;15.32;;;;;;;10.55;53.81;98005.06;4399372;32;20109;-86
2022/12/22 05:16:36;;;;;;;38.22;16.02;;;;;;;9.99;55.44;98007.38;4399219;32;20103;-86
2022/12/22 05:19:03;;;;;;;34.53;15.23;;;;;;;9.74;56.53;98000.66;4398902;32;20102;-86
2022/12/22 05:21:30;;;;;;;40.67;17.62;;;;;;;10.03;55.09;97990.91;4398551;32;20062;-86
2022/12/22 05:23:57;;;;;;;37.55;16.02;;;;;;;10.02;55.49;97990.06;4398545;32;20694;-86
2022/12/22 05:26:24;;;;;;;;;;;;;;;9.19;57.69;97997.66;4384864;32;20099;-86
2022/12/22 05:28:51;;;;;;;34.67;15.40;;;;;;;9.34;57.86;98006.53;4398686;32;20035;-86
2022/12/22 05:31:24;;;;;;;42.05;16.62;;;;;;;9.81;55.87;98009.81;4624581;27;20097;-89
2022/12/22 05:33:51;;;;;;;44.03;18.00;;;;;;;9.63;57.07;97999.41;4673913;27;20117;-86
2022/12/22 05:36:18;;;;;;;43.85;17.73;;;;;;;9.66;57.11;98001.84;4410878;32;20101;-82
2022/12/22 05:38:45;;;;;;;51.13;20.45;;;;;;;9.57;57.41;97991.03;4410361;32;20094;-82
2022/12/22 05:41:12;;;;;;;48.05;19.58;;;;;;;9.62;57.20;97996.00;4410520;32;20441;-82
2022/12/22 05:43:40;;;;;;;38.97;17.45;;;;;;;9.81;56.79;97996.94;4395937;32;20087;-82
2022/12/22 05:46:09;;;;;;;45.10;18.27;;;;;;;9.82;56.66;97980.56;4410231;32;20106;-82
2022/12/22 05:48:37;;;;;;;38.47;14.15;;;;;;;10.84;53.28;97982.28;4410558;32;20102;-82
2022/12/22 05:51:07;;;;;;;32.88;14.55;;;;;;;10.68;53.07;97995.87;4410423;32;20207;-82
2022/12/22 05:53:34;;;;;;;38.42;14.75;;;;;;;10.44;52.99;97994.34;4410201;32;20152;-82
2022/12/22 05:56:01;;;;;;;39.58;15.50;;;;;;;10.28;53.91;97995.91;4410546;32;20160;-82
2022/12/22 05:58:28;;;;;;;37.90;15.20;;;;;;;9.59;55.93;97990.97;4410430;32;20144;-82
2022/12/22 06:00:55;;;;;;;;;;;;;;;9.55;55.64;97992.81;4410458;32;20147;-82
2022/12/22 06:03:23;;;;;;;41.50;16.10;;;;;;;9.60;55.89;97991.81;4410494;32;19984;-82
2022/12/22 06:05:50;;;;;;;39.15;16.30;;;;;;;9.46;56.23;97989.75;4410431;32;20120;-82
2022/12/22 06:08:18;;;;;;;37.50;16.10;;;;;;;9.57;56.32;97997.94;4410097;32;20338;-82
2022/12/22 06:10:45;;;;;;;41.58;15.95;;;;;;;8.71;59.71;97997.72;4410397;32;20093;-82
2022/12/22 06:13:12;;;;;;;42.75;16.48;;;;;;;9.77;56.27;98003.09;4410453;32;20108;-82
2022/12/22 06:15:38;;;;;;;42.05;17.02;;;;;;;9.44;56.70;97991.56;4409906;32;20098;-82
2022/12/22 06:18:05;;;;;;;116.62;21.75;;;;;;;8.82;58.34;97984.47;4410476;32;20086;-82
2022/12/22 06:20:32;;;;;;;;;;;;;;;9.16;57.82;97992.62;4410519;32;20207;-82
2022/12/22 06:22:59;;;;;;;192.20;25.00;;;;;;;9.02;58.37;97986.31;4410183;32;19969;-82
2022/12/22 06:25:26;;;;;;;173.60;27.52;;;;;;;7.96;61.86;97996.87;4410271;32;20109;-81
2022/12/22 06:27:53;;;;;;;186.95;28.42;;;;;;;7.83;63.91;98010.13;4411410;32;20102;-88
2022/12/22 06:30:19;;;;;;;;;;;;;;;7.37;65.68;98004.75;4412063;32;20734;-88
2022/12/22 06:32:53;;;;;;;118.03;26.52;;;;;;;7.92;63.52;98006.41;4412167;32;20437;-88
2022/12/22 06:35:19;;;;;;;;;;;;;;;8.64;60.63;98001.44;4412514;32;20062;-88
2022/12/22 06:37:46;;;;;;;99.75;25.05;;;;;;;8.91;59.48;98004.72;4413578;32;19978;-88
2022/12/22 06:40:14;;;;;;;;;;;;;;;8.74;59.88;98002.78;4414258;32;20089;-88
2022/12/22 06:45:39;;;;;;;145.57;28.35;;;;;;;8.27;61.90;98018.09;4418360;32;20120;-88
2022/12/22 06:48:08;;;;;;;207.98;29.23;;;;;;;8.32;62.00;98005.94;4418203;32;20071;-88
2022/12/22 06:50:35;;;;;;;161.88;31.85;;;;;;;7.15;66.56;98013.09;4404882;32;20106;-88
2022/12/22 06:53:02;;;;;;;218.98;33.15;;;;;;;6.77;68.63;98011.63;4417737;32;20131;-88
2022/12/22 06:55:29;;;;;;;223.35;33.80;;;;;;;7.42;66.13;98016.56;4417179;32;20098;-88
2022/12/22 06:57:56;;;;;;;;;;;;;;;8.92;60.60;98016.69;4417994;32;20809;-88
2022/12/22 07:00:24;;;;;;;211.48;32.30;;;;;;;8.78;60.90;98018.94;4411974;32;20027;-86
2022/12/22 07:02:51;;;;;;;243.35;33.42;;;;;;;8.88;60.13;98012.56;4411659;32;20101;-87
2022/12/22 07:05:18;;;;;;;210.55;30.98;;;;;;;9.54;57.19;98016.06;4409690;32;20110;-87
2022/12/22 07:07:45;;;;;;;102.15;28.38;;;;;;;9.59;56.60;98014.16;4410029;32;20086;-87
2022/12/22 07:10:12;;;;;;;88.87;26.20;;;;;;;10.02;54.98;98015.84;4409655;32;20108;-86
2022/12/22 07:12:40;;;;;;;56.30;22.65;;;;;;;10.07;54.97;98016.47;4410007;32;20148;-86
2022/12/22 07:15:07;;;;;;;53.20;21.15;;;;;;;9.60;56.59;98009.84;4396199;32;20106;-87
2022/12/22 07:17:34;;;;;;;51.75;20.25;;;;;;;9.39;57.20;98002.06;4409633;32;20155;-86
2022/12/22 07:20:01;;;;;;;39.50;16.90;;;;;;;9.51;56.90;97998.16;4409881;32;20754;-86
2022/12/22 07:22:28;;;;;;;38.83;16.33;;;;;;;8.40;60.94;97988.56;4410103;32;20104;-86
2022/12/22 07:24:57;;;;;;;40.63;16.62;;;;;;;7.90;63.55;97991.94;4409395;32;20145;-87
2022/12/22 07:27:24;;;;;;;39.33;15.90;;;;;;;8.48;61.34;97987.41;4410158;32;20138;-86
2022/12/22 07:29:51;;;;;;;41.20;15.65;;;;;;;8.89;60.06;97994.50;4409753;32;20147;-86
2022/12/22 07:32:18;;;;;;;;;;;;;;;8.24;62.31;98001.94;4409918;32;20083;-86
2022/12/22 07:34:45;;;;;;;37.08;15.45;;;;;;;8.12;64.32;98009.16;4409515;32;19985;-87
2022/12/22 07:37:12;;;;;;;34.33;13.68;;;;;;;8.56;62.65;98008.56;4409717;32;20090;-87
2022/12/22 07:39:39;;;;;;;36.05;15.57;;;;;;;9.64;58.08;98004.50;4409267;32;20532;-86
2022/12/22 07:44:51;;;;;;;36.22;16.62;;;;;;;9.22;58.41;98012.97;4409383;32;20094;-87
2022/12/22 07:47:18;;;;;;;;;;;;;;;9.13;59.16;98015.06;4409750;32;20094;-87
2022/12/22 07:52:31;;;;;;;37.33;15.57;;;;;;;9.42;58.74;98025.09;4409904;32;20093;-88
2022/12/22 07:54:57;;;;;;;41.33;16.73;;;;;;;9.56;57.91;98035.69;4410687;32;20113;-88
2022/12/22 07:57:25;;;;;;;40.33;17.23;;;;;;;9.73;57.93;98026.47;4410397;32;20106;-87
2022/12/22 07:59:52;;;;;;;37.30;16.65;;;;;;;10.26;55.81;98023.50;4409472;32;20144;-87
2022/12/22 08:02:19;;;;;;;38.78;16.27;;;;;;;10.86;53.83;98014.03;4396389;32;20098;-87
2022/12/22 08:04:46;;;;;;;38.30;15.80;;;;;;;10.61;54.56;98006.50;4409676;32;20144;-88
2022/12/22 08:07:13;;;;;;;35.42;14.38;;;;;;;10.45;55.15;98015.84;4414656;32;20156;-87
2022/12/22 08:09:40;;;;;;;37.50;15.05;;;;;;;10.57;55.13;98023.88;4415270;32;20105;-87
2022/12/22 08:12:07;;;;;;;38.60;15.98;;;;;;;10.82;53.11;98027.97;4412296;32;20081;-87
2022/12/22 08:14:34;;;;;;;36.63;14.68;;;;;;;10.28;55.04;98026.84;4411379;32;20106;-88
2022/12/22 08:17:01;;;;;;;;;;;;;;;10.62;54.34;98031.41;4413099;32;20082;-87
2022/12/22 08:19:28;;;;;;;37.47;14.63;;;;;;;10.00;56.53;98033.13;4411431;32;19973;-86
2022/12/22 08:21:55;;;;;;;36.25;15.57;;;;;;;10.00;56.39;98027.13;4410777;32;20109;-87
2022/12/22 08:24:22;;;;;;;36.75;14.68;;;;;;;10.19;56.27;98009.13;4411079;32;20137;-88
2022/12/22 08:26:52;;;;;;;33.45;14.35;;;;;;;10.23;55.56;98010.75;4411002;32;20097;-88
2022/12/22 08:29:32;;;;;;;35.50;14.48;;;;;;;10.45;54.16;98008.09;4410880;32;20143;-88
2022/12/22 08:31:59;;;;;;;36.50;15.02;;;;;;;10.16;55.65;97997.22;4397494;32;20090;-88
2022/12/22 08:34:26;;;;;;;36.03;15.02;;;;;;;10.18;55.12;97999.72;4410594;32;20090;-88
2022/12/22 08:36:56;;;;;;;35.75;15.18;;;;;;;9.91;56.76;98002.56;4411132;32;20164;-89
2022/12/22 08:39:24;;;;;;;35.33;14.07;;;;;;;9.92;57.77;98004.22;4410961;32;20094;-88
2022/12/22 08:41:52;;;;;;;36.30;15.38;;;;;;;10.20;56.52;97995.34;4397112;32;20116;-88
2022/12/22 08:44:29;;;;;;;35.63;14.63;;;;;;;9.96;57.20;97994.63;4397381;32;20094;-88
2022/12/22 08:46:57;;;;;;;35.13;15.15;;;;;;;10.62;56.14;97993.53;4410922;32;20105;-88
2022/12/22 08:49:25;;;;;;;32.33;13.85;;;;;;;10.59;54.44;97988.53;4410545;32;20090;-88
2022/12/22 08:51:53;;;;;;;31.05;14.13;;;;;;;11.06;53.09;97990.75;4410686;32;20086;-88
2022/12/22 08:54:20;;;;;;;34.47;14.68;;;;;;;10.66;54.05;97997.69;4410944;32;20457;-88
2022/12/22 08:56:48;;;;;;;36.05;16.27;;;;;;;10.70;54.27;98006.13;4413752;32;20073;-89
2022/12/22 08:59:15;;;;;;;37.70;15.70;;;;;;;10.80;54.68;98004.81;4411194;32;20441;-87
2022/12/22 09:01:45;;;;;;;38.33;16.73;;;;;;;10.77;55.06;97994.63;4411927;32;20082;-87
2022/12/22 09:04:14;;;;;;;52.05;17.75;;;;;;;11.33;53.50;98004.13;4410928;32;20091;-87
2022/12/22 09:06:41;;;;;;;50.53;18.42;;;;;;;10.70;55.69;97996.63;4410749;32;20163;-87
2022/12/22 09:09:09;;;;;;;70.18;28.85;;;;;;;10.18;57.85;97995.41;4410734;32;20176;-87
2022/12/22 09:11:37;;;;;;;113.85;41.90;;;;;;;9.61;61.51;97988.34;4411066;32;20483;-88
2022/12/22 09:14:04;;;;;;;87.03;32.22;;;;;;;8.84;64.09;97977.56;4410901;32;20148;-87
2022/12/22 09:16:32;;;;;;;65.87;25.95;;;;;;;10.35;59.55;97979.28;4410314;32;20151;-87
2022/12/22 09:19:00;;;;;;;78.12;20.58;;;;;;;10.66;58.48;97989.09;4411370;32;20783;-87
2022/12/22 09:21:27;;;;;;;76.65;17.35;;;;;;;9.53;63.46;97996.34;4410558;32;20082;-88
2022/12/22 09:23:55;;;;;;;45.97;16.20;;;;;;;10.48;61.02;97995.06;4410376;32;20369;-89
2022/12/22 09:26:24;;;;;;;41.05;16.98;;;;;;;10.99;58.37;98000.50;4397081;32;20124;-89
2022/12/22 09:28:51;;;;;;;53.47;18.08;;;;;;;11.06;57.63;98001.06;4410731;32;20077;-88
2022/12/22 09:31:20;;;;;;;43.60;16.50;;;;;;;10.36;59.76;97996.41;4410213;32;20074;-88
2022/12/22 09:33:47;;;;;;;55.33;18.17;;;;;;;9.90;62.63;97989.75;4410464;32;20416;-88
2022/12/22 09:36:17;;;;;;;48.60;17.02;;;;;;;9.90;62.40;97992.31;4410565;32;20094;-88
2022/12/22 09:38:44;;;;;;;44.38;16.52;;;;;;;9.61;63.38;97983.19;4396694;32;20093;-87
2022/12/22 09:41:22;;;;;;;40.67;15.65;;;;;;;9.74;63.24;97985.19;4411800;32;20078;-88
2022/12/22 09:43:49;;;;;;;44.70;14.75;;;;;;;9.23;66.16;97976.03;4397029;32;20163;-87
2022/12/22 09:46:27;;;;;;;42.15;15.27;;;;;;;9.18;67.12;97982.28;4410155;32;20163;-87
2022/12/22 09:48:54;;;;;;;43.72;15.35;;;;;;;9.26;66.24;97968.22;4410570;32;20495;-87
2022/12/22 09:51:23;;;;;;;47.20;16.05;;;;;;;9.07;69.16;97963.81;4410070;32;20081;-87
2022/12/22 09:53:58;;;;;;;46.45;15.55;;;;;;;9.55;66.78;97961.91;4397348;32;20532;-88
2022/12/22 09:56:27;;;;;;;45.83;15.45;;;;;;;10.03;65.90;97942.78;4396749;32;20165;-88
2022/12/22 09:58:54;;;;;;;41.00;14.05;;;;;;;10.07;66.11;97946.03;4410102;32;20094;-87
2022/12/22 10:01:34;;;;;;;40.75;16.02;;;;;;;10.34;64.57;97941.50;4410303;32;20077;-88
2022/12/22 10:04:28;;;;;;;43.50;15.77;;;;;;;11.14;61.59;97936.16;4410531;32;20155;-87
2022/12/22 10:07:01;;;;;;;43.08;14.70;;;;;;;10.97;61.73;97931.78;4396395;32;20128;-87
2022/12/22 10:09:30;;;;;;;48.15;14.82;;;;;;;11.40;59.58;97927.19;4410340;32;20098;-87
2022/12/22 10:12:23;;;;;;;45.95;15.05;;;;;;;11.69;57.29;97926.59;4399078;32;20129;-89
2022/12/22 10:14:51;;;;;;;50.42;15.68;;;;;;;11.72;57.49;97916.12;4410401;32;20105;-86
2022/12/22 10:17:22;;;;;;;45.53;13.20;;;;;;;11.79;57.52;97914.91;4410528;32;20109;-87
2022/12/22 10:19:52;;;;;;;46.05;14.85;;;;;;;12.08;55.60;97910.88;4396393;32;20133;-84
2022/12/22 10:22:44;;;;;;;54.80;15.63;;;;;;;11.73;57.56;97914.38;4410575;32;20155;-86
2022/12/22 10:25:25;;;;;;;50.60;15.73;;;;;;;11.66;57.99;97915.56;4396700;32;20114;-86
2022/12/22 10:28:00;;;;;;;60.97;15.60;;;;;;;11.38;59.41;97914.34;4410230;32;20151;-85
2022/12/22 10:30:36;;;;;;;58.72;16.98;;;;;;;11.52;58.58;97916.25;4383321;32;20103;-87
2022/12/22 10:33:10;;;;;;;62.67;17.65;;;;;;;11.40;59.20;97909.09;4410728;32;20082;-88
2022/12/22 10:35:46;;;;;;;65.15;16.90;;;;;;;11.21;59.67;97903.97;4415652;32;20098;-89
2022/12/22 10:38:26;;;;;;;66.15;16.23;;;;;;;11.12;60.43;97910.41;4414390;32;20094;-90
2022/12/22 10:40:56;;;;;;;62.85;17.30;;;;;;;11.24;60.20;97914.97;4399400;32;20097;-91
2022/12/22 10:43:39;;;;;;;80.03;17.23;;;;;;;11.06;61.35;97908.12;4399801;32;20077;-91
2022/12/22 10:46:05;;;;;;;85.50;17.27;;;;;;;11.02;62.67;97896.25;4416824;32;20074;-91
2022/12/22 10:48:35;;;;;;;85.00;17.08;;;;;;;11.87;59.27;97897.28;4410815;32;20101;-89
2022/12/22 10:51:05;;;;;;;65.70;16.27;;;;;;;11.18;61.30;97896.38;4399498;32;20076;-89
2022/12/22 10:53:46;;;;;;;52.83;15.98;;;;;;;11.29;60.33;97892.38;4421576;32;20077;-88
2022/12/22 10:56:31;;;;;;;51.13;15.77;;;;;;;10.84;61.36;97884.19;4423193;32;20089;-88
2022/12/22 10:59:00;;;;;;;49.00;15.75;;;;;;;11.16;61.49;97883.50;4408927;32;20078;-87
2022/12/22 11:01:35;;;;;;;66.53;17.12;;;;;;;10.86;63.10;97883.22;4419770;32;20078;-88
2022/12/22 11:04:24;;;;;;;75.20;16.67;;;;;;;10.49;65.20;97876.31;4405437;32;20165;-88
2022/12/22 11:06:53;;;;;;;57.15;16.35;;;;;;;10.76;65.59;97873.41;4413659;32;20111;-88
2022/12/22 11:09:20;;;;;;;57.08;16.40;;;;;;;11.14;63.30;97881.91;4411841;32;20094;-87
2022/12/22 11:12:31;;;;;;;82.35;17.37;;;;;;;11.19;63.11;97885.13;4410226;32;20090;-88
2022/12/22 11:15:19;;;;;;;58.57;18.47;;;;;;;11.42;62.59;97891.78;4396434;32;20105;-87
2022/12/22 11:17:57;;;;;;;63.03;18.30;;;;;;;11.23;61.93;97882.31;4397060;32;20110;-87
2022/12/22 11:20:46;;;;;;;55.67;17.73;;;;;;;11.25;62.22;97879.66;4410448;32;20098;-87
2022/12/22 11:23:37;;;;;;;69.82;17.70;;;;;;;11.38;61.84;97869.56;4411662;32;20062;-89
2022/12/22 11:26:30;;;;;;;74.65;18.70;;;;;;;11.41;61.91;97870.28;4409593;32;20167;-88
2022/12/22 11:29:15;;;;;;;61.35;17.15;;;;;;;10.83;64.45;97873.03;4410010;32;20090;-88
2022/12/22 11:31:54;;;;;;;73.82;18.12;;;;;;;11.09;64.20;97866.66;4409763;32;20448;-87
2022/12/22 11:34:57;;;;;;;60.38;17.48;;;;;;;11.34;62.94;97874.06;4409974;32;20086;-87
2022/12/22 11:37:46;;;;;;;66.75;17.77;;;;;;;11.26;62.89;97869.25;4395995;32;20112;-87
2022/12/22 11:40:32;;;;;;;67.85;20.90;;;;;;;11.18;63.23;97867.97;4409406;32;20120;-87
2022/12/22 11:43:33;;;;;;;66.57;18.60;;;;;;;11.06;65.21;97861.66;4396520;32;20566;-87
2022/12/22 11:46:25;;;;;;;72.87;20.35;;;;;;;11.23;64.09;97868.56;4410451;32;20090;-87
2022/12/22 11:49:17;;;;;;;70.03;18.70;;;;;;;11.53;63.31;97866.25;4409807;32;20388;-87
2022/12/22 11:52:09;;;;;;;76.87;17.98;;;;;;;11.70;62.11;97876.59;4395749;32;20452;-87
2022/12/22 11:55:24;;;;;;;66.57;17.95;;;;;;;11.23;64.54;97873.75;4396010;32;20497;-87
2022/12/22 11:58:07;;;;;;;69.82;17.52;;;;;;;11.16;65.00;97857.69;4393390;32;20102;-87
2022/12/22 12:00:41;;;;;;;59.10;16.37;;;;;;;11.14;66.20;97854.34;4395853;32;20171;-87
2022/12/22 12:03:28;;;;;;;76.87;18.23;;;;;;;11.18;65.81;97847.31;4398731;32;20128;-87
2022/12/22 12:06:14;;;;;;;102.03;18.25;;;;;;;11.26;65.56;97827.94;4409831;32;20153;-87
2022/12/22 12:09:03;;;;;;;83.18;19.15;;;;;;;10.60;68.76;97825.06;4409758;32;20086;-87
2022/12/22 12:11:54;;;;;;;93.70;18.48;;;;;;;11.34;66.03;97827.56;4396619;32;20083;-88
2022/12/22 12:14:32;;;;;;;90.53;17.02;;;;;;;11.13;67.65;97831.19;4410265;32;20149;-87
2022/12/22 12:17:12;;;;;;;96.75;18.17;;;;;;;10.98;67.05;97825.88;4410689;32;20071;-87
2022/12/22 12:19:57;;;;;;;75.18;17.90;;;;;;;11.01;68.08;97830.03;4399258;32;20098;-88
2022/12/22 12:22:35;;;;;;;87.28;18.73;;;;;;;10.81;67.93;97832.72;4397520;32;20144;-88
2022/12/22 12:25:23;;;;;;;85.72;19.37;;;;;;;10.98;68.49;97833.59;4411290;32;20114;-87
2022/12/22 12:28:06;;;;;;;79.55;17.98;;;;;;;11.28;67.73;97825.28;4413750;32;20058;-88
2022/12/22 12:30:51;;;;;;;68.05;18.62;;;;;;;12.00;64.21;97837.19;4399475;32;20149;-87
2022/12/22 12:33:35;;;;;;;56.78;16.50;;;;;;;12.08;63.80;97838.47;4411801;32;20082;-89
2022/12/22 12:36:37;;;;;;;68.90;17.65;;;;;;;12.15;63.48;97839.00;4396076;32;20479;-89
2022/12/22 12:39:23;;;;;;;75.18;18.30;;;;;;;12.36;62.56;97848.22;4407674;32;20102;-89
2022/12/22 12:42:08;;;;;;;78.03;17.65;;;;;;;12.99;59.10;97840.44;4394760;32;20148;-89
2022/12/22 12:44:35;;;;;;;100.60;19.00;;;;;;;12.57;61.34;97841.06;4395457;32;20086;-88
2022/12/22 12:47:20;;;;;;;61.58;19.05;;;;;;;11.77;64.26;97839.16;4407148;32;20102;-88
2022/12/22 12:49:51;;;;;;;66.12;20.30;;;;;;;12.01;64.04;97831.94;4408663;32;20428;-88
2022/12/22 12:52:38;;;;;;;57.08;18.35;;;;;;;12.49;62.38;97839.78;4409278;32;20094;-88
2022/12/22 12:55:33;;;;;;;74.28;20.45;;;;;;;13.52;58.19;97836.59;4410439;32;20437;-89
2022/12/22 12:58:02;;;;;;;69.72;18.37;;;;;;;13.47;57.72;97846.38;4369581;32;20098;-88
2022/12/22 13:00:32;;;;;;;58.78;20.05;;;;;;;13.39;57.77;97847.75;4397323;32;20110;-88
2022/12/22 13:03:01;;;;;;;86.85;21.83;;;;;;;12.82;59.83;97853.47;4410527;32;20109;-88
2022/12/22 13:05:32;;;;;;;80.72;19.67;;;;;;;12.63;60.77;97860.56;4397053;32;20440;-88
2022/12/22 13:08:24;;;;;;;84.55;18.90;;;;;;;12.68;61.03;97851.66;4410531;32;20113;-88
2022/12/22 13:10:54;;;;;;;61.75;19.30;;;;;;;13.57;57.12;97844.94;4397089;32;20125;-88
2022/12/22 13:13:21;;;;;;;71.50;22.92;;;;;;;12.65;59.88;97848.38;4410885;32;20143;-88
2022/12/22 13:16:06;;;;;;;;;;;;;;;11.62;64.15;97847.72;4410580;32;20400;-89
2022/12/22 13:18:33;;;;;;;87.50;27.27;;;;;;;10.84;66.94;97850.63;4411215;32;20313;-89
2022/12/22 13:21:24;;;;;;;116.25;27.92;;;;;;;9.66;71.42;97857.59;4410576;32;20128;-88
2022/12/22 13:24:20;;;;;;;104.72;25.37;;;;;;;9.64;72.23;97860.22;4410572;32;20445;-90
2022/12/22 13:26:54;;;;;;;72.15;22.05;;;;;;;9.14;74.22;97860.56;4422015;32;20063;-89
2022/12/22 13:29:20;;;;;;;60.33;20.15;;;;;;;9.13;74.38;97864.03;4411978;32;20750;-88
2022/12/22 13:31:59;;;;;;;80.47;24.50;;;;;;;8.94;74.36;97861.38;4424658;32;20094;-88
2022/12/22 13:34:44;;;;;;;47.90;18.00;;;;;;;8.23;78.88;97859.72;4409246;32;20085;-88
2022/12/22 13:37:42;;;;;;;78.80;23.98;;;;;;;9.12;75.45;97864.94;4412364;32;20117;-88
2022/12/22 13:40:24;;;;;;;72.25;21.92;;;;;;;8.00;81.77;97852.84;4424792;32;20119;-87
2022/12/22 13:42:54;;;;;;;67.10;19.27;;;;;;;8.72;78.20;97857.94;4425041;32;20066;-88
2022/12/22 13:45:42;;;;;;;114.43;25.88;;;;;;;7.71;83.26;97845.31;4409367;32;20140;-88
2022/12/22 13:48:31;;;;;;;113.53;23.08;;;;;;;7.60;82.97;97845.69;4420661;32;20104;-88
2022/12/22 13:51:33;;;;;;;127.97;24.67;;;;;;;7.73;83.01;97854.63;4422738;32;20062;-89
2022/12/22 13:54:03;;;;;;;74.10;20.75;;;;;;;8.26;80.10;97864.75;4415956;32;20089;-89
2022/12/22 13:56:40;;;;;;;85.53;18.92;;;;;;;7.55;84.77;97850.16;4402799;32;20856;-89
2022/12/22 13:59:20;;;;;;;68.68;15.45;;;;;;;6.71;87.64;97862.25;4389436;32;20121;-90
2022/12/22 14:01:55;;;;;;;138.98;21.83;;;;;;;6.80;87.97;97864.53;4419483;32;20066;-89
2022/12/22 14:04:22;;;;;;;140.35;22.37;;;;;;;7.18;86.60;97864.19;4399487;32;20113;-89
2022/12/22 14:06:49;;;;;;;122.13;21.55;;;;;;;7.14;86.09;97862.59;4412388;32;20110;-88
2022/12/22 14:09:17;;;;;;;;;;;;;;;6.52;88.67;97861.97;4411474;32;20164;-89
2022/12/22 14:12:10;;;;;;;127.15;22.70;;;;;;;6.60;87.56;97871.12;4410780;32;20331;-89
2022/12/22 14:14:40;;;;;;;83.47;18.48;;;;;;;7.44;83.64;97881.31;4398754;32;20106;-89
2022/12/22 14:17:24;;;;;;;80.00;19.27;;;;;;;6.23;89.92;97884.13;4400706;32;20062;-78
2022/12/22 14:19:54;;;;;;;98.90;19.12;;;;;;;5.39;95.62;97888.88;4400896;32;20086;-79
2022/12/22 14:22:24;;;;;;;182.12;25.95;;;;;;;6.27;91.21;97879.75;4404066;32;20117;-80
2022/12/22 14:24:55;;;;;;;128.35;21.60;;;;;;;6.80;87.91;97874.78;4418033;32;20098;-80
2022/12/22 14:27:22;;;;;;;141.07;20.50;;;;;;;7.01;86.63;97881.81;4418672;32;20086;-80
2022/12/22 14:29:48;;;;;;;;;;;;;;;5.93;91.94;97892.66;4415585;32;20115;-79
2022/12/22 14:32:37;;;;;;;133.12;21.00;;;;;;;6.23;90.25;97898.66;4410105;32;20032;-79
2022/12/22 14:35:20;;;;;;;341.90;30.48;;;;;;;7.10;85.31;97894.38;4409828;32;20519;-80
2022/12/22 14:37:48;;;;;;;166.20;24.95;;;;;;;7.74;82.85;97891.44;4410352;32;20132;-80
2022/12/22 14:40:36;;;;;;;166.95;21.75;;;;;;;7.94;81.96;97899.31;4396449;32;20108;-79
2022/12/22 14:43:05;;;;;;;228.55;25.75;;;;;;;7.34;83.36;97897.91;4410470;32;20090;-80
2022/12/22 14:45:32;;;;;;;174.38;22.67;;;;;;;7.44;83.79;97901.84;4410058;32;20106;-80
2022/12/22 14:47:59;;;;;;;132.35;21.02;;;;;;;6.88;85.61;97896.75;4409944;32;20086;-79
2022/12/22 14:50:27;;;;;;;;;;;;;;;7.37;85.14;97896.97;4410458;32;20078;-80
2022/12/22 14:52:56;;;;;;;90.05;17.58;;;;;;;6.55;88.00;97897.75;4396736;32;19982;-80
2022/12/22 14:55:48;;;;;;;183.93;24.67;;;;;;;7.24;85.03;97906.78;4409768;32;20503;-80
2022/12/22 14:58:21;;;;;;;323.87;31.15;;;;;;;6.67;88.64;97908.47;4396543;32;20094;-80
2022/12/22 15:01:13;;;;;;;146.15;21.83;;;;;;;6.49;89.64;97908.19;4395969;32;20074;-79
2022/12/22 15:03:40;;;;;;;164.77;24.05;;;;;;;6.22;90.43;97899.56;4410043;32;20155;-80
2022/12/22 15:06:26;;;;;;;326.73;33.38;;;;;;;7.07;86.96;97909.84;4396224;32;20460;-80
2022/12/22 15:09:07;;;;;;;362.30;36.08;;;;;;;7.14;85.88;97907.97;4409684;32;20104;-79
2022/12/22 15:11:37;;;;;;;270.60;29.83;;;;;;;7.18;84.90;97899.25;4410029;32;20148;-79
2022/12/22 15:14:04;;;;;;;134.50;23.12;;;;;;;7.00;86.17;97910.09;4410205;32;20102;-80
2022/12/22 15:16:31;;;;;;;295.92;31.92;;;;;;;7.53;83.85;97908.38;4409715;32;20678;-80
2022/12/22 15:18:57;;;;;;;221.25;27.13;;;;;;;7.19;84.96;97899.22;4410105;32;20085;-80
2022/12/22 15:21:24;;;;;;;;;;;;;;;6.77;87.79;97903.09;4396333;32;20094;-80
2022/12/22 15:23:51;;;;;;;122.75;21.83;;;;;;;6.40;88.50;97898.22;4410141;32;20383;-79
2022/12/22 15:26:18;;;;;;;;;;;;;;;7.00;85.62;97902.38;4409980;32;20113;-80
2022/12/22 15:28:45;;;;;;;72.57;16.35;;;;;;;7.64;83.24;97908.03;4409618;32;20035;-79
2022/12/22 15:31:15;;;;;;;64.45;14.55;;;;;;;8.30;79.06;97907.47;4409865;32;20078;-79
2022/12/22 15:33:43;;;;;;;54.50;16.27;;;;;;;8.02;79.53;97894.75;4396052;32;20153;-79
2022/12/22 15:36:12;;;;;;;152.38;21.52;;;;;;;7.29;83.85;97901.50;4409546;32;20156;-79